Time;durP1;ratioP1;P1;durP2;ratioP2;P2;SDS_P1;SDS_P2;PMS_P1;PMS_P2;Temp;Humidity;BMP_temperature;BMP_pressure;BME280_temperature;BME280_humidity;BME280_pressure;Samples;Min_cycle;Max_cycle;Signal;HPM_P1;HPM_P2
2024/01/31 00:01:29;;;;;;;17.90;13.10;;;;;;;;;;5062157;28;20223;-68
2024/01/31 00:03:56;;;;;;;13.00;11.10;;;3.30;99.90;;;;;;5060562;28;20582;-68
2024/01/31 00:06:25;;;;;;;14.27;11.90;;;3.50;99.90;;;;;;5055177;28;20231;-68
2024/01/31 00:08:52;;;;;;;16.93;11.50;;;3.40;99.90;;;;;;5060191;28;20553;-68
2024/01/31 00:11:20;;;;;;;13.33;10.73;;;3.20;99.90;;;;;;5058590;28;20227;-69
2024/01/31 00:13:47;;;;;;;16.20;11.57;;;;;;;;;;5054550;28;20220;-68
2024/01/31 00:16:14;;;;;;;16.30;11.97;;;3.10;99.90;;;;;;5056520;28;20690;-68
2024/01/31 00:18:41;;;;;;;15.17;12.30;;;3.20;99.90;;;;;;5052506;28;20296;-68
2024/01/31 00:21:08;;;;;;;15.50;11.17;;;3.20;99.90;;;;;;5055185;28;20284;-68
2024/01/31 00:23:37;;;;;;;15.70;12.87;;;3.20;99.90;;;;;;5056098;28;20207;-69
2024/01/31 00:26:04;;;;;;;14.77;11.43;;;3.20;99.90;;;;;;5044773;28;20555;-68
2024/01/31 00:28:31;;;;;;;17.30;11.83;;;3.00;99.90;;;;;;5043167;28;20207;-68
2024/01/31 00:30:58;;;;;;;15.93;12.30;;;;;;;;;;5042650;28;20223;-68
2024/01/31 00:33:25;;;;;;;14.33;11.10;;;3.00;99.90;;;;;;5044061;28;20212;-68
2024/01/31 00:35:52;;;;;;;13.03;11.33;;;3.50;99.90;;;;;;5042351;28;20266;-69
2024/01/31 00:38:22;;;;;;;15.37;11.97;;;;;;;;;;5042842;28;20198;-68
2024/01/31 00:40:50;;;;;;;18.93;12.70;;;2.70;99.90;;;;;;5048371;28;20234;-68
2024/01/31 00:43:17;;;;;;;20.50;13.63;;;2.70;99.90;;;;;;5041519;28;20201;-68
2024/01/31 00:45:44;;;;;;;17.57;12.20;;;2.60;99.90;;;;;;5044720;28;20361;-68
2024/01/31 00:48:10;;;;;;;17.40;12.57;;;2.70;99.90;;;;;;5037152;28;20205;-69
2024/01/31 00:50:37;;;;;;;19.40;14.33;;;2.60;99.90;;;;;;5053206;28;20273;-69
2024/01/31 00:53:04;;;;;;;18.17;13.27;;;2.60;99.90;;;;;;5052821;28;20228;-68
2024/01/31 00:55:31;;;;;;;14.57;12.23;;;2.40;99.90;;;;;;5056377;28;20197;-69
2024/01/31 00:58:00;;;;;;;16.27;11.90;;;2.40;99.90;;;;;;5051895;28;20204;-69
2024/01/31 01:00:27;;;;;;;21.57;13.80;;;2.40;99.90;;;;;;5054149;28;20250;-68
2024/01/31 01:02:54;;;;;;;15.80;13.13;;;2.40;99.90;;;;;;5051125;28;20691;-69
2024/01/31 01:05:21;;;;;;;18.40;12.90;;;2.40;99.90;;;;;;5061476;28;20195;-68
2024/01/31 01:07:48;;;;;;;17.87;11.83;;;2.40;99.90;;;;;;5074062;28;20199;-68
2024/01/31 01:10:16;;;;;;;17.40;13.43;;;2.40;99.90;;;;;;5073774;28;20614;-68
2024/01/31 01:12:43;;;;;;;15.53;12.20;;;;;;;;;;5072744;28;20600;-69
2024/01/31 01:15:12;;;;;;;17.53;12.60;;;2.30;99.90;;;;;;5073574;28;20219;-69
2024/01/31 01:17:39;;;;;;;16.57;12.40;;;2.30;99.90;;;;;;5073521;28;20273;-69
2024/01/31 01:20:08;;;;;;;16.07;12.40;;;2.20;99.90;;;;;;5073458;28;20227;-68
2024/01/31 01:22:35;;;;;;;18.07;13.67;;;2.30;99.90;;;;;;5053451;28;20200;-68
2024/01/31 01:25:02;;;;;;;14.63;11.90;;;2.40;99.90;;;;;;5053583;28;20257;-68
2024/01/31 01:27:29;;;;;;;17.80;13.23;;;2.40;99.90;;;;;;5053343;28;20672;-68
2024/01/31 01:29:56;;;;;;;16.27;13.20;;;2.40;99.90;;;;;;5053309;28;20224;-68
2024/01/31 01:32:24;;;;;;;16.30;13.00;;;2.30;99.90;;;;;;5052774;28;20570;-69
2024/01/31 01:34:51;;;;;;;17.50;13.70;;;2.40;99.90;;;;;;5052989;28;20707;-69
2024/01/31 01:37:20;;;;;;;16.20;13.53;;;2.40;99.90;;;;;;5051884;28;20207;-68
2024/01/31 01:39:47;;;;;;;19.73;13.10;;;2.40;99.90;;;;;;5053538;28;20278;-69
2024/01/31 01:42:14;;;;;;;17.70;13.90;;;2.50;99.90;;;;;;5052473;28;20203;-68
2024/01/31 01:44:45;;;;;;;23.43;14.93;;;2.50;99.90;;;;;;5052889;28;20258;-69
2024/01/31 01:47:13;;;;;;;20.03;14.70;;;2.50;99.90;;;;;;5053278;28;20222;-68
2024/01/31 01:49:42;;;;;;;19.50;15.40;;;2.30;99.90;;;;;;5053025;28;20584;-68
2024/01/31 01:52:10;;;;;;;17.13;13.47;;;2.30;99.90;;;;;;5052029;28;20208;-69
2024/01/31 01:54:38;;;;;;;18.57;12.93;;;2.30;99.90;;;;;;5052148;28;20217;-69
2024/01/31 01:57:07;;;;;;;14.00;12.37;;;2.50;99.90;;;;;;5053080;28;20199;-68
2024/01/31 01:59:34;;;;;;;16.50;13.43;;;2.50;99.90;;;;;;5052796;28;20680;-69
2024/01/31 02:02:02;;;;;;;14.23;11.80;;;2.40;99.90;;;;;;5052170;28;20203;-68
2024/01/31 02:04:29;;;;;;;15.20;12.40;;;2.50;99.90;;;;;;5052678;28;20254;-69
2024/01/31 02:06:58;;;;;;;15.57;13.47;;;2.50;99.90;;;;;;5052764;28;20208;-69
2024/01/31 02:09:26;;;;;;;15.13;12.00;;;2.60;99.90;;;;;;5062346;28;20249;-69
2024/01/31 02:11:53;;;;;;;17.27;12.10;;;2.50;99.90;;;;;;5071656;28;20313;-69
2024/01/31 02:14:20;;;;;;;17.53;13.03;;;2.50;99.90;;;;;;5072336;28;20292;-68
2024/01/31 02:16:47;;;;;;;13.67;11.70;;;2.60;99.90;;;;;;5072813;28;20260;-68
2024/01/31 02:19:14;;;;;;;14.53;10.93;;;2.60;99.90;;;;;;5072566;28;20204;-69
2024/01/31 02:21:43;;;;;;;16.00;12.00;;;2.50;99.90;;;;;;5071708;28;20276;-69
2024/01/31 02:24:12;;;;;;;15.53;12.33;;;2.70;99.90;;;;;;5072205;28;20292;-69
2024/01/31 02:26:39;;;;;;;15.40;12.03;;;2.70;99.90;;;;;;5058308;28;20281;-68
2024/01/31 02:29:06;;;;;;;16.97;13.00;;;2.70;99.90;;;;;;5052291;28;20207;-68
2024/01/31 02:31:33;;;;;;;15.73;12.07;;;2.60;99.90;;;;;;5051680;28;20223;-69
2024/01/31 02:34:00;;;;;;;12.50;11.17;;;2.50;99.90;;;;;;5052225;28;20262;-69
2024/01/31 02:36:27;;;;;;;13.50;10.47;;;2.50;99.90;;;;;;5052372;28;20257;-69
2024/01/31 02:38:54;;;;;;;13.70;11.40;;;2.40;99.90;;;;;;5052161;28;20254;-68
2024/01/31 02:41:22;;;;;;;14.23;10.70;;;2.40;99.90;;;;;;5052114;28;20281;-69
2024/01/31 02:43:50;;;;;;;18.13;12.13;;;2.50;99.90;;;;;;5050955;28;20223;-69
2024/01/31 02:46:17;;;;;;;14.47;11.80;;;2.40;99.90;;;;;;5052288;28;20215;-69
2024/01/31 02:48:45;;;;;;;14.23;11.17;;;2.30;99.90;;;;;;5052007;28;20261;-69
2024/01/31 02:51:12;;;;;;;11.87;10.67;;;2.30;99.90;;;;;;5045258;28;20221;-69
2024/01/31 02:53:39;;;;;;;14.27;12.57;;;2.40;99.90;;;;;;5042694;28;20254;-69
2024/01/31 02:56:09;;;;;;;15.83;12.00;;;2.30;99.90;;;;;;5052108;28;20738;-69
2024/01/31 02:58:38;;;;;;;13.53;10.90;;;2.20;99.90;;;;;;5048373;28;20209;-69
2024/01/31 03:01:06;;;;;;;13.37;10.63;;;2.10;99.90;;;;;;5046193;28;20250;-68
2024/01/31 03:03:33;;;;;;;16.57;11.60;;;2.20;99.90;;;;;;5048904;28;20203;-69
2024/01/31 03:06:00;;;;;;;14.40;10.83;;;2.10;99.90;;;;;;5051951;28;20203;-69
2024/01/31 03:08:28;;;;;;;15.03;11.10;;;2.10;99.90;;;;;;5049829;28;20199;-68
2024/01/31 03:10:55;;;;;;;14.93;12.03;;;2.10;99.90;;;;;;5051758;28;20715;-69
2024/01/31 03:13:22;;;;;;;15.37;11.90;;;2.00;99.90;;;;;;5053882;28;20211;-69
2024/01/31 03:15:50;;;;;;;17.73;12.90;;;1.90;99.90;;;;;;5052101;28;20784;-69
2024/01/31 03:18:17;;;;;;;14.20;11.87;;;1.90;99.90;;;;;;5053707;28;20679;-69
2024/01/31 03:20:44;;;;;;;17.07;11.60;;;2.00;99.90;;;;;;5051457;28;20223;-69
2024/01/31 03:23:11;;;;;;;17.83;12.50;;;1.90;99.90;;;;;;5050852;28;20204;-69
2024/01/31 03:25:38;;;;;;;13.60;11.93;;;2.00;99.90;;;;;;5049908;28;20664;-69
2024/01/31 03:28:05;;;;;;;15.33;11.60;;;1.90;99.90;;;;;;5043212;28;20255;-68
2024/01/31 03:30:32;;;;;;;18.97;11.77;;;1.90;99.90;;;;;;5031490;28;20251;-68
2024/01/31 03:33:00;;;;;;;15.77;11.77;;;1.90;99.90;;;;;;5030312;28;20266;-68
2024/01/31 03:35:27;;;;;;;13.37;11.30;;;2.00;99.90;;;;;;5031574;28;20270;-69
2024/01/31 03:37:54;;;;;;;16.00;11.93;;;1.90;99.90;;;;;;5041200;28;20246;-69
2024/01/31 03:40:21;;;;;;;12.80;11.40;;;1.90;99.90;;;;;;5047237;28;20283;-69
2024/01/31 03:42:48;;;;;;;17.37;13.53;;;2.00;99.90;;;;;;5045881;28;20196;-68
2024/01/31 03:45:15;;;;;;;18.20;13.03;;;1.90;99.90;;;;;;5037460;28;20216;-69
2024/01/31 03:47:42;;;;;;;16.67;13.40;;;2.00;99.90;;;;;;5046546;28;20249;-68
2024/01/31 03:50:11;;;;;;;14.37;11.13;;;2.00;99.90;;;;;;5034769;28;20231;-69
2024/01/31 03:52:38;;;;;;;17.40;13.57;;;2.00;99.90;;;;;;5036985;28;20254;-69
2024/01/31 03:55:06;;;;;;;17.50;12.97;;;1.90;99.90;;;;;;5050180;28;20263;-69
2024/01/31 03:57:33;;;;;;;13.73;11.30;;;1.90;99.90;;;;;;5050486;28;20196;-68
2024/01/31 04:00:04;;;;;;;14.97;11.20;;;2.00;99.90;;;;;;5036743;28;20374;-69
2024/01/31 04:02:32;;;;;;;18.33;13.03;;;2.10;99.90;;;;;;5036315;28;20197;-69
2024/01/31 04:04:59;;;;;;;15.60;12.60;;;2.10;99.90;;;;;;5037874;28;20247;-69
2024/01/31 04:07:28;;;;;;;17.67;12.07;;;1.90;99.90;;;;;;5052454;28;20650;-69
2024/01/31 04:09:55;;;;;;;17.83;13.23;;;2.00;99.90;;;;;;5057240;28;20228;-69
2024/01/31 04:12:22;;;;;;;15.47;11.87;;;2.00;99.90;;;;;;5044466;28;20193;-68
2024/01/31 04:14:49;;;;;;;15.10;12.60;;;2.10;99.90;;;;;;5045492;28;20269;-68
2024/01/31 04:17:19;;;;;;;13.67;11.47;;;2.10;99.90;;;;;;5043068;28;20200;-68
2024/01/31 04:19:48;;;;;;;18.53;13.27;;;2.10;99.90;;;;;;5041482;28;20231;-68
2024/01/31 04:22:19;;;;;;;18.47;14.10;;;2.00;99.90;;;;;;5049349;28;20204;-69
2024/01/31 04:24:48;;;;;;;16.70;13.40;;;2.10;99.90;;;;;;5046822;28;20196;-69
2024/01/31 04:27:17;;;;;;;16.90;12.13;;;2.20;99.90;;;;;;5044137;28;20269;-69
2024/01/31 04:29:44;;;;;;;14.87;12.07;;;2.30;99.90;;;;;;5052130;28;20204;-69
2024/01/31 04:32:11;;;;;;;17.87;11.83;;;2.20;99.90;;;;;;5039050;28;20624;-68
2024/01/31 04:34:39;;;;;;;16.43;11.93;;;2.10;99.90;;;;;;5039237;28;20642;-69
2024/01/31 04:37:06;;;;;;;17.50;12.37;;;2.00;99.90;;;;;;5048064;28;20618;-69
2024/01/31 04:39:34;;;;;;;13.10;11.70;;;2.00;99.90;;;;;;5040780;28;20208;-68
2024/01/31 04:42:02;;;;;;;13.70;11.87;;;2.00;99.90;;;;;;5043292;28;20215;-69
2024/01/31 04:44:30;;;;;;;15.93;12.17;;;2.20;99.90;;;;;;5042379;28;20731;-69
2024/01/31 04:46:58;;;;;;;16.00;11.13;;;2.20;99.90;;;;;;5039716;28;20198;-68
2024/01/31 04:49:25;;;;;;;22.17;13.37;;;2.00;99.90;;;;;;5053864;28;20207;-69
2024/01/31 04:51:53;;;;;;;14.43;11.77;;;2.00;99.90;;;;;;5053269;28;20622;-69
2024/01/31 04:54:20;;;;;;;15.77;12.60;;;2.10;99.90;;;;;;5048751;28;20203;-70
2024/01/31 04:56:47;;;;;;;18.13;12.37;;;2.10;99.90;;;;;;5048868;28;20207;-69
2024/01/31 04:59:15;;;;;;;17.47;11.10;;;2.00;99.90;;;;;;5047544;28;20208;-69
2024/01/31 05:01:43;;;;;;;15.73;11.13;;;2.20;99.90;;;;;;5039831;28;20221;-69
2024/01/31 05:04:10;;;;;;;14.10;11.10;;;2.00;99.90;;;;;;5048412;28;20261;-69
2024/01/31 05:06:37;;;;;;;12.77;10.77;;;1.90;99.90;;;;;;5055626;28;20199;-69
2024/01/31 05:09:04;;;;;;;13.10;11.40;;;1.90;99.90;;;;;;5050840;28;20208;-69
2024/01/31 05:11:31;;;;;;;28.67;16.37;;;1.80;99.90;;;;;;5047485;28;20246;-69
2024/01/31 05:13:58;;;;;;;18.53;13.03;;;2.00;99.90;;;;;;5050285;28;20253;-69
2024/01/31 05:16:26;;;;;;;24.70;15.10;;;1.80;99.90;;;;;;5050928;28;20262;-69
2024/01/31 05:18:53;;;;;;;39.33;22.10;;;1.80;99.90;;;;;;5052109;28;20203;-69
2024/01/31 05:21:20;;;;;;;18.43;13.20;;;2.00;99.90;;;;;;5053230;28;20289;-69
2024/01/31 05:23:47;;;;;;;19.33;13.20;;;2.00;99.90;;;;;;5028764;28;20541;-69
2024/01/31 05:26:14;;;;;;;15.40;11.83;;;1.90;99.90;;;;;;5043830;28;20193;-69
2024/01/31 05:28:43;;;;;;;17.07;12.37;;;2.00;99.90;;;;;;5033684;28;20303;-69
2024/01/31 05:31:10;;;;;;;14.23;10.83;;;1.90;99.90;;;;;;5032590;28;20714;-69
2024/01/31 05:33:38;;;;;;;13.73;11.57;;;1.90;99.90;;;;;;5032975;28;20671;-69
2024/01/31 05:36:06;;;;;;;15.63;12.13;;;2.00;99.90;;;;;;5036867;28;20274;-69
2024/01/31 05:38:32;;;;;;;17.20;12.87;;;1.90;99.90;;;;;;5042357;28;20200;-69
2024/01/31 05:41:00;;;;;;;19.40;13.40;;;2.00;99.90;;;;;;5047342;28;20761;-69
2024/01/31 05:43:27;;;;;;;18.83;12.70;;;2.00;99.90;;;;;;5047181;28;20228;-69
2024/01/31 05:45:53;;;;;;;28.03;13.70;;;2.00;99.90;;;;;;5053187;28;20660;-68
2024/01/31 05:48:20;;;;;;;17.37;13.10;;;2.10;99.90;;;;;;5052322;28;20261;-69
2024/01/31 05:50:49;;;;;;;22.53;13.47;;;1.90;99.90;;;;;;5051841;28;20220;-68
2024/01/31 05:53:16;;;;;;;17.77;13.97;;;2.00;99.90;;;;;;5051773;28;20254;-69
2024/01/31 05:55:43;;;;;;;20.27;14.17;;;2.00;99.90;;;;;;5048438;28;20214;-68
2024/01/31 05:58:10;;;;;;;20.53;15.63;;;1.90;99.90;;;;;;5052807;28;20257;-68
2024/01/31 06:00:37;;;;;;;22.10;14.87;;;2.00;99.90;;;;;;5052181;28;20227;-69
2024/01/31 06:03:04;;;;;;;28.37;14.43;;;1.80;99.90;;;;;;5051685;28;20258;-69
2024/01/31 06:05:31;;;;;;;21.20;15.60;;;1.80;99.90;;;;;;5052172;28;20194;-69
2024/01/31 06:08:00;;;;;;;30.40;18.77;;;1.90;99.90;;;;;;5042936;28;20207;-64
2024/01/31 06:10:27;;;;;;;24.23;18.03;;;2.00;99.90;;;;;;5045775;28;20282;-66
2024/01/31 06:12:53;;;;;;;19.73;14.63;;;1.90;99.90;;;;;;5044023;28;20203;-65
2024/01/31 06:15:20;;;;;;;52.10;17.97;;;2.00;99.90;;;;;;5050314;28;20219;-66
2024/01/31 06:17:47;;;;;;;39.57;17.37;;;1.90;99.90;;;;;;5051505;28;20231;-63
2024/01/31 06:20:14;;;;;;;30.37;17.00;;;1.70;99.90;;;;;;5050086;28;20250;-64
2024/01/31 06:22:41;;;;;;;27.87;16.07;;;1.80;99.90;;;;;;5044123;28;20222;-67
2024/01/31 06:25:10;;;;;;;24.70;13.37;;;1.70;99.90;;;;;;5046784;28;20200;-68
2024/01/31 06:27:37;;;;;;;22.27;12.97;;;1.80;99.90;;;;;;5041781;28;20257;-68
2024/01/31 06:30:05;;;;;;;19.27;12.20;;;1.70;99.90;;;;;;5047404;28;20277;-68
2024/01/31 06:32:35;;;;;;;15.40;10.63;;;1.80;99.90;;;;;;5049293;28;20203;-68
2024/01/31 06:35:02;;;;;;;26.27;12.60;;;1.80;99.90;;;;;;5049653;28;20642;-72
2024/01/31 06:37:29;;;;;;;32.63;12.20;;;1.80;99.90;;;;;;5044337;28;20201;-67
2024/01/31 06:39:56;;;;;;;15.47;12.17;;;1.80;99.90;;;;;;5050867;28;20219;-67
2024/01/31 06:42:24;;;;;;;23.07;14.97;;;2.00;99.90;;;;;;5049707;28;20208;-66
2024/01/31 06:44:51;;;;;;;20.83;13.87;;;1.90;99.90;;;;;;5052441;28;20221;-67
2024/01/31 06:47:18;;;;;;;69.43;19.63;;;1.90;99.90;;;;;;5055648;28;20276;-68
2024/01/31 06:49:45;;;;;;;62.80;18.43;;;2.10;99.90;;;;;;5050570;28;20227;-69
2024/01/31 06:52:12;;;;;;;16.80;12.57;;;1.90;99.90;;;;;;5043049;28;20202;-70
2024/01/31 06:54:39;;;;;;;17.20;12.77;;;2.00;99.90;;;;;;5050101;28;20273;-69
2024/01/31 06:57:06;;;;;;;15.50;11.67;;;2.20;99.90;;;;;;5051591;28;20274;-69
2024/01/31 06:59:34;;;;;;;23.20;13.13;;;2.30;99.90;;;;;;5050822;28;20199;-71
2024/01/31 07:02:01;;;;;;;16.17;12.63;;;2.30;99.90;;;;;;5042666;28;20204;-72
2024/01/31 07:04:28;;;;;;;24.70;12.37;;;2.20;99.90;;;;;;5042722;28;20615;-72
2024/01/31 07:06:55;;;;;;;15.77;12.43;;;2.30;99.90;;;;;;5043854;28;20198;-70
2024/01/31 07:09:22;;;;;;;23.30;14.57;;;2.30;99.90;;;;;;5049664;28;20196;-68
2024/01/31 07:11:49;;;;;;;26.67;14.43;;;2.30;99.90;;;;;;5041644;28;20784;-70
2024/01/31 07:14:16;;;;;;;19.77;14.50;;;2.20;99.90;;;;;;5048018;28;20257;-68
2024/01/31 07:16:44;;;;;;;16.23;12.27;;;2.30;99.90;;;;;;5042614;28;20262;-66
2024/01/31 07:19:11;;;;;;;17.27;13.17;;;2.30;99.90;;;;;;5045436;28;20204;-66
2024/01/31 07:21:38;;;;;;;19.37;14.27;;;2.30;99.90;;;;;;5040489;28;20227;-70
2024/01/31 07:24:06;;;;;;;18.13;14.77;;;2.40;99.90;;;;;;5044560;28;20346;-72
2024/01/31 07:26:33;;;;;;;17.57;14.00;;;2.40;99.90;;;;;;5050135;28;20253;-73
2024/01/31 07:29:01;;;;;;;18.77;14.80;;;2.50;99.90;;;;;;5050614;28;20256;-69
2024/01/31 07:31:28;;;;;;;18.70;15.03;;;2.40;99.90;;;;;;5049061;28;20223;-68
2024/01/31 07:33:56;;;;;;;19.37;14.93;;;2.30;99.90;;;;;;5044294;28;20242;-72
2024/01/31 07:36:23;;;;;;;15.97;13.17;;;2.30;99.90;;;;;;5048810;28;20281;-69
2024/01/31 07:38:50;;;;;;;18.87;15.03;;;2.40;99.90;;;;;;5058203;28;20735;-70
2024/01/31 07:41:17;;;;;;;19.37;14.23;;;2.40;99.90;;;;;;5049247;28;20215;-69
2024/01/31 07:43:44;;;;;;;19.80;14.23;;;2.40;99.90;;;;;;5047348;28;20199;-69
2024/01/31 07:46:12;;;;;;;23.23;15.37;;;2.50;99.90;;;;;;5054350;28;20205;-65
2024/01/31 07:48:39;;;;;;;28.37;13.90;;;2.40;99.90;;;;;;5052102;28;20729;-67
2024/01/31 07:51:07;;;;;;;30.27;13.93;;;2.50;99.90;;;;;;5054963;28;20215;-68
2024/01/31 07:53:34;;;;;;;13.87;11.27;;;2.50;99.90;;;;;;5058291;28;20211;-68
2024/01/31 07:56:01;;;;;;;16.97;13.93;;;2.50;99.90;;;;;;5058321;28;20284;-69
2024/01/31 07:58:29;;;;;;;15.07;12.70;;;2.50;99.90;;;;;;5053894;28;20211;-68
2024/01/31 08:00:56;;;;;;;19.37;13.80;;;2.40;99.90;;;;;;5052841;28;20215;-68
2024/01/31 08:03:23;;;;;;;21.37;14.77;;;2.50;99.90;;;;;;5045271;28;20561;-67
2024/01/31 08:05:50;;;;;;;21.00;14.80;;;2.50;99.90;;;;;;5054883;28;20187;-67
2024/01/31 08:08:18;;;;;;;26.70;16.07;;;2.50;99.90;;;;;;5051919;28;20206;-64
2024/01/31 08:10:46;;;;;;;25.30;16.80;;;2.60;99.90;;;;;;5038293;28;20231;-65
2024/01/31 08:13:13;;;;;;;21.30;15.83;;;2.50;99.90;;;;;;5043801;28;20303;-64
2024/01/31 08:15:39;;;;;;;20.90;15.67;;;2.50;99.90;;;;;;5042765;28;20311;-64
2024/01/31 08:18:07;;;;;;;21.77;15.57;;;2.80;99.90;;;;;;5041242;28;20279;-65
2024/01/31 08:20:34;;;;;;;23.10;16.77;;;2.70;99.90;;;;;;5049808;28;20273;-66
2024/01/31 08:23:01;;;;;;;21.63;16.70;;;2.80;99.90;;;;;;5045394;28;20205;-64
2024/01/31 08:25:29;;;;;;;19.33;15.60;;;2.90;99.90;;;;;;5048044;28;20204;-62
2024/01/31 08:27:56;;;;;;;21.47;15.17;;;2.80;99.90;;;;;;5054604;28;20249;-69
2024/01/31 08:30:23;;;;;;;18.47;14.60;;;3.00;99.90;;;;;;5054464;28;20232;-69
2024/01/31 08:32:50;;;;;;;16.23;13.97;;;3.10;99.90;;;;;;5053322;28;20739;-68
2024/01/31 08:35:17;;;;;;;18.17;15.10;;;3.20;99.90;;;;;;5054237;28;20257;-67
2024/01/31 08:37:44;;;;;;;17.80;13.80;;;3.10;99.90;;;;;;5054598;28;20582;-68
2024/01/31 08:40:12;;;;;;;15.93;12.27;;;3.40;99.90;;;;;;5048665;28;20271;-69
2024/01/31 08:42:40;;;;;;;16.83;12.50;;;3.30;99.90;;;;;;5055495;28;20233;-69
2024/01/31 08:45:09;;;;;;;13.87;10.93;;;3.60;99.90;;;;;;5074125;28;20233;-69
2024/01/31 08:47:36;;;;;;;15.13;12.57;;;3.30;99.90;;;;;;5074167;28;20203;-69
2024/01/31 08:50:03;;;;;;;15.00;10.47;;;3.50;99.90;;;;;;5074023;28;20256;-69
2024/01/31 08:52:30;;;;;;;14.20;11.30;;;3.70;99.90;;;;;;5073397;28;20325;-70
2024/01/31 08:54:57;;;;;;;14.17;10.53;;;3.80;99.90;;;;;;5064555;28;20199;-69
2024/01/31 08:57:24;;;;;;;11.00;9.90;;;3.70;99.90;;;;;;5073982;28;20220;-67
2024/01/31 08:59:53;;;;;;;13.83;10.47;;;4.00;99.90;;;;;;5074038;28;20226;-63
2024/01/31 09:02:20;;;;;;;11.43;10.13;;;4.10;99.90;;;;;;5073463;28;20207;-64
2024/01/31 09:04:47;;;;;;;10.63;9.63;;;4.20;99.90;;;;;;5074029;28;20629;-64
2024/01/31 09:07:14;;;;;;;11.93;10.37;;;4.10;99.90;;;;;;5074259;28;20203;-66
2024/01/31 09:09:41;;;;;;;11.67;9.37;;;4.20;99.90;;;;;;5073939;28;20205;-66
2024/01/31 09:12:08;;;;;;;10.27;8.60;;;4.40;99.90;;;;;;5045716;28;20196;-66
2024/01/31 09:14:35;;;;;;;9.80;8.23;;;4.40;99.90;;;;;;5033662;28;20210;-64
2024/01/31 09:17:04;;;;;;;9.80;8.17;;;4.40;99.90;;;;;;5033815;28;20225;-65
2024/01/31 09:19:31;;;;;;;8.90;8.00;;;4.50;99.90;;;;;;5036056;28;20737;-65
2024/01/31 09:21:58;;;;;;;12.53;8.43;;;4.30;99.90;;;;;;5052789;28;20253;-68
2024/01/31 09:24:25;;;;;;;8.70;7.80;;;4.60;99.90;;;;;;5051276;28;20274;-67
2024/01/31 09:26:52;;;;;;;11.43;8.27;;;4.80;99.90;;;;;;5053503;28;20261;-61
2024/01/31 09:29:19;;;;;;;14.87;8.53;;;4.80;99.90;;;;;;5036984;28;20244;-65
2024/01/31 09:31:47;;;;;;;9.33;8.20;;;4.80;99.90;;;;;;5032848;28;20281;-65
2024/01/31 09:34:15;;;;;;;9.83;8.90;;;5.30;99.90;;;;;;5033365;28;20492;-66
2024/01/31 09:36:45;;;;;;;12.00;8.87;;;5.50;99.90;;;;;;5033260;28;20307;-63
2024/01/31 09:39:12;;;;;;;10.67;9.57;;;5.50;99.90;;;;;;5033367;28;20714;-65
2024/01/31 09:41:39;;;;;;;12.90;9.93;;;5.70;99.90;;;;;;5032281;28;20229;-64
2024/01/31 09:44:06;;;;;;;14.87;9.20;;;5.90;99.90;;;;;;5033427;28;20268;-63
2024/01/31 09:46:33;;;;;;;11.20;9.43;;;6.00;99.90;;;;;;5052816;28;20246;-64
2024/01/31 09:49:00;;;;;;;8.93;7.73;;;6.00;99.90;;;;;;5052681;28;20909;-66
2024/01/31 09:51:29;;;;;;;7.70;6.97;;;6.20;99.90;;;;;;5006039;28;20792;-65
2024/01/31 09:53:59;;;;;;;8.30;6.63;;;6.20;99.90;;;;;;5012844;28;20202;-65
2024/01/31 09:56:27;;;;;;;9.97;6.17;;;6.40;99.90;;;;;;5012877;28;20712;-65
2024/01/31 09:58:55;;;;;;;6.10;5.50;;;6.50;99.90;;;;;;5012642;28;20255;-66
2024/01/31 10:01:24;;;;;;;5.30;4.47;;;6.50;99.90;;;;;;5014321;28;20216;-69
2024/01/31 10:03:51;;;;;;;5.90;5.17;;;6.50;99.90;;;;;;5013778;28;20263;-63
2024/01/31 10:06:19;;;;;;;5.83;4.97;;;6.60;99.90;;;;;;4999221;28;21570;-68
2024/01/31 10:08:48;;;;;;;5.37;4.27;;;6.70;99.90;;;;;;5011049;28;20300;-69
2024/01/31 10:11:15;;;;;;;5.73;4.53;;;6.70;99.90;;;;;;5014757;28;20228;-64
2024/01/31 10:13:42;;;;;;;8.33;6.93;;;6.80;99.90;;;;;;5012828;28;20284;-63
2024/01/31 10:16:09;;;;;;;8.83;8.10;;;7.00;99.90;;;;;;5013327;28;20225;-67
2024/01/31 10:18:36;;;;;;;10.83;9.77;;;7.30;99.90;;;;;;5014535;28;20201;-71
2024/01/31 10:21:03;;;;;;;9.00;8.20;;;7.50;99.90;;;;;;5014176;28;20224;-65
2024/01/31 10:23:30;;;;;;;8.63;7.57;;;7.80;99.90;;;;;;5011825;28;20259;-67
2024/01/31 10:25:58;;;;;;;8.77;7.87;;;8.00;99.90;;;;;;5012621;28;20256;-67
2024/01/31 10:28:25;;;;;;;9.80;8.10;;;8.40;99.90;;;;;;5012922;28;20209;-68
2024/01/31 10:30:53;;;;;;;9.23;8.40;;;8.70;99.90;;;;;;5012789;28;20225;-65
2024/01/31 10:33:22;;;;;;;9.13;8.33;;;8.70;99.90;;;;;;5011672;28;20209;-66
2024/01/31 10:35:49;;;;;;;13.53;9.43;;;8.50;99.90;;;;;;5000882;28;20202;-66
2024/01/31 10:38:16;;;;;;;9.93;8.20;;;8.60;99.90;;;;;;4992749;28;20647;-65
2024/01/31 10:40:43;;;;;;;8.03;7.23;;;8.70;99.90;;;;;;4992983;28;20747;-66
2024/01/31 10:43:12;;;;;;;7.63;6.87;;;8.60;99.90;;;;;;4992142;28;20331;-67
2024/01/31 10:45:39;;;;;;;7.80;7.03;;;8.50;99.90;;;;;;4992751;28;20206;-67
2024/01/31 10:48:06;;;;;;;6.97;6.47;;;8.50;99.90;;;;;;4993008;28;20197;-68
2024/01/31 10:50:34;;;;;;;8.87;7.47;;;8.50;99.90;;;;;;4992509;28;20223;-71
2024/01/31 10:53:04;;;;;;;9.70;8.57;;;8.40;99.90;;;;;;4995783;28;20213;-66
2024/01/31 10:55:33;;;;;;;10.27;9.10;;;8.40;99.90;;;;;;5014753;28;20316;-67
2024/01/31 10:58:02;;;;;;;11.33;9.27;;;8.10;99.90;;;;;;5012145;28;20708;-66
2024/01/31 11:00:30;;;;;;;10.27;9.37;;;8.00;99.90;;;;;;5012195;28;20284;-67
2024/01/31 11:02:58;;;;;;;8.63;7.90;;;7.80;99.90;;;;;;5011306;28;20295;-71
2024/01/31 11:05:26;;;;;;;9.30;8.30;;;7.70;99.90;;;;;;5012340;28;20205;-70
2024/01/31 11:07:53;;;;;;;10.07;8.87;;;7.70;99.90;;;;;;5012355;28;20201;-72
2024/01/31 11:10:22;;;;;;;10.03;9.00;;;7.70;99.90;;;;;;5008355;28;20216;-63
2024/01/31 11:12:58;;;;;;;9.23;8.33;;;7.90;99.90;;;;;;5026946;28;20205;-66
2024/01/31 11:15:30;;;;;;;9.15;8.45;;;8.00;99.90;;;;;;5029125;28;20429;-65
2024/01/31 11:18:09;;;;;;;11.23;9.10;;;8.00;99.90;;;;;;5030240;28;20315;-65
2024/01/31 11:20:37;;;;;;;10.27;9.37;;;8.10;99.90;;;;;;5030522;28;20680;-65
2024/01/31 11:23:05;;;;;;;13.97;10.20;;;8.00;99.90;;;;;;5027736;28;20212;-65
2024/01/31 11:25:37;;;;;;;11.17;10.20;;;7.80;99.90;;;;;;5007789;28;20224;-65
2024/01/31 11:28:05;;;;;;;9.63;8.73;;;7.40;99.90;;;;;;4989569;28;20279;-64
2024/01/31 11:30:33;;;;;;;10.70;9.57;;;7.50;99.90;;;;;;4996395;28;20225;-65
2024/01/31 11:33:01;;;;;;;11.83;10.53;;;7.50;99.90;;;;;;4991403;28;20257;-66
2024/01/31 11:35:28;;;;;;;12.10;10.80;;;7.60;99.90;;;;;;4992198;28;20264;-65
2024/01/31 11:37:57;;;;;;;11.07;9.93;;;7.70;99.90;;;;;;4992152;28;20596;-65
2024/01/31 11:40:24;;;;;;;12.67;10.70;;;7.40;99.90;;;;;;4991980;28;20316;-65
2024/01/31 11:42:52;;;;;;;10.77;9.77;;;7.40;99.90;;;;;;4992717;28;20209;-65
2024/01/31 11:45:19;;;;;;;10.90;9.77;;;7.40;99.90;;;;;;5007354;28;20197;-65
2024/01/31 11:47:48;;;;;;;12.50;10.77;;;7.50;99.90;;;;;;5011815;28;20205;-65
2024/01/31 11:50:15;;;;;;;10.87;9.60;;;7.40;99.90;;;;;;5011745;28;20234;-65
2024/01/31 11:52:42;;;;;;;9.73;8.77;;;7.40;99.90;;;;;;5010926;28;20206;-65
2024/01/31 11:55:12;;;;;;;12.60;9.67;;;7.20;99.90;;;;;;5011616;28;20201;-65
2024/01/31 11:57:39;;;;;;;12.03;10.80;;;7.10;99.90;;;;;;5011221;28;20298;-65
2024/01/31 12:00:07;;;;;;;11.30;10.20;;;7.20;99.90;;;;;;5011700;28;20225;-65
2024/01/31 12:02:35;;;;;;;12.17;10.70;;;7.20;99.90;;;;;;5010671;28;20693;-65
2024/01/31 12:05:03;;;;;;;12.10;10.90;;;7.20;99.90;;;;;;5011516;28;20209;-65
2024/01/31 12:07:30;;;;;;;11.20;10.00;;;7.30;99.90;;;;;;5011721;28;20205;-65
2024/01/31 12:09:58;;;;;;;11.50;10.30;;;7.30;99.90;;;;;;5011781;28;20287;-65
2024/01/31 12:12:26;;;;;;;12.53;11.17;;;7.40;99.90;;;;;;5010648;28;20255;-65
2024/01/31 12:14:54;;;;;;;11.57;10.20;;;7.40;99.90;;;;;;5011274;28;20232;-65
2024/01/31 12:17:22;;;;;;;14.50;10.87;;;7.40;99.90;;;;;;5011361;28;20216;-65
2024/01/31 12:19:49;;;;;;;12.77;11.00;;;7.40;99.90;;;;;;5011431;28;20220;-65
2024/01/31 12:22:21;;;;;;;15.40;12.60;;;7.40;99.90;;;;;;5013721;28;20288;-65
2024/01/31 12:24:48;;;;;;;13.33;11.63;;;7.40;99.90;;;;;;5014823;28;20251;-65
2024/01/31 12:27:17;;;;;;;17.67;12.20;;;7.30;99.90;;;;;;5015087;28;20205;-65
2024/01/31 12:29:46;;;;;;;12.33;10.97;;;7.20;99.90;;;;;;5015056;28;20208;-65
2024/01/31 12:32:13;;;;;;;13.27;10.43;;;7.20;99.90;;;;;;5013791;28;20201;-65
2024/01/31 12:34:40;;;;;;;11.37;10.17;;;7.20;99.90;;;;;;5014702;28;20262;-65
2024/01/31 12:37:07;;;;;;;11.17;10.07;;;7.00;99.90;;;;;;5014808;28;20292;-65
2024/01/31 12:39:35;;;;;;;11.63;10.47;;;7.10;99.90;;;;;;5014717;28;20203;-65
2024/01/31 12:42:03;;;;;;;11.10;9.77;;;;;;;;;;5013976;28;20287;-65
2024/01/31 12:44:30;;;;;;;10.23;9.23;;;7.30;99.90;;;;;;5014528;28;20683;-65